createdAt,value
2023-01-20T00:01:40.445Z,6.50
2023-01-20T00:06:42.485Z,5.90
2023-01-20T00:11:44.732Z,6.50
2023-01-20T00:16:48.197Z,6.03
2023-01-20T00:21:50.205Z,5.67
2023-01-20T00:26:52.454Z,6.37
2023-01-20T00:31:55.667Z,6.03
2023-01-20T00:36:58.015Z,6.43
2023-01-20T00:42:00.415Z,6.13
2023-01-20T00:47:03.799Z,6.77
2023-01-20T00:52:06.348Z,6.47
2023-01-20T00:57:08.800Z,6.97
2023-01-20T01:02:12.569Z,5.53
2023-01-20T01:07:14.731Z,6.50
2023-01-20T01:12:16.770Z,5.20
2023-01-20T01:17:20.270Z,6.87
2023-01-20T01:22:22.670Z,7.60
2023-01-20T01:27:24.704Z,6.47
2023-01-20T01:32:28.423Z,7.07
2023-01-20T01:37:30.785Z,7.37
2023-01-20T01:42:33.060Z,7.40
2023-01-20T01:47:37.516Z,7.60
2023-01-20T01:52:42.887Z,7.23
2023-01-20T01:57:45.925Z,5.83
2023-01-20T02:02:49.730Z,6.77
2023-01-20T02:07:53.016Z,8.27
2023-01-20T02:12:55.313Z,7.53
2023-01-20T02:18:12.932Z,8.33
2023-01-20T02:23:30.505Z,8.27
2023-01-20T02:29:17.028Z,8.47
2023-01-20T02:34:28.595Z,7.83
2023-01-20T02:39:40.245Z,7.73
2023-01-20T02:44:49.829Z,8.17
2023-01-20T02:50:14.560Z,7.63
2023-01-20T02:55:22.515Z,8.53
2023-01-20T03:00:29.237Z,8.40
2023-01-20T03:05:37.316Z,9.03
2023-01-20T03:10:41.783Z,8.33
2023-01-20T03:15:54.138Z,9.17
2023-01-20T03:20:58.667Z,9.70
2023-01-20T03:26:02.701Z,9.97
2023-01-20T03:31:11.958Z,9.47
2023-01-20T03:36:16.752Z,9.87
2023-01-20T03:41:35.770Z,9.10
2023-01-20T03:46:43.460Z,10.20
2023-01-20T03:51:57.128Z,10.17
2023-01-20T03:57:04.547Z,9.20
2023-01-20T04:02:08.940Z,10.97
2023-01-20T04:07:17.689Z,10.13
2023-01-20T04:12:19.920Z,10.83
2023-01-20T04:17:26.453Z,10.50
2023-01-20T04:22:35.018Z,10.37
2023-01-20T04:27:37.181Z,9.90
2023-01-20T04:32:39.682Z,10.67
2023-01-20T04:37:43.235Z,10.50
2023-01-20T04:42:45.531Z,11.17
2023-01-20T04:47:47.488Z,10.77
2023-01-20T04:52:55.198Z,11.23
2023-01-20T04:57:57.329Z,9.67
2023-01-20T05:02:59.466Z,11.17
2023-01-20T05:08:02.677Z,10.60
2023-01-20T05:13:04.681Z,11.27
2023-01-20T05:18:06.782Z,12.23
2023-01-20T05:23:10.398Z,11.07
2023-01-20T05:28:12.613Z,11.17
2023-01-20T05:33:14.796Z,12.47
2023-01-20T05:38:18.369Z,13.03
2023-01-20T05:43:20.295Z,11.27
2023-01-20T05:48:22.359Z,11.97
2023-01-20T05:53:26.094Z,11.80
2023-01-20T05:58:28.563Z,13.50
2023-01-20T06:03:30.999Z,11.53
2023-01-20T06:08:35.008Z,12.13
2023-01-20T06:13:37.174Z,10.97
2023-01-20T06:18:39.295Z,13.40
2023-01-20T06:23:42.731Z,12.50
2023-01-20T06:28:44.898Z,12.70
2023-01-20T06:33:47.203Z,13.60
2023-01-20T06:38:50.832Z,14.03
2023-01-20T06:43:52.782Z,12.60
2023-01-20T06:48:54.844Z,14.63
2023-01-20T06:53:58.577Z,13.83
2023-01-20T06:59:00.813Z,13.60
2023-01-20T07:04:03.570Z,14.10
2023-01-20T07:09:08.944Z,13.77
2023-01-20T07:14:11.088Z,12.03
2023-01-20T07:19:13.965Z,12.47
2023-01-20T07:24:23.605Z,13.90
2023-01-20T07:29:26.921Z,13.00
2023-01-20T07:34:28.972Z,14.03
2023-01-20T07:39:32.560Z,15.17
2023-01-20T07:44:34.955Z,14.17
2023-01-20T07:49:37.305Z,13.83
2023-01-20T07:54:40.845Z,14.50
2023-01-20T07:59:42.944Z,12.70
2023-01-20T08:05:08.729Z,13.50
2023-01-20T08:10:12.335Z,13.47
2023-01-20T08:15:14.796Z,13.73
2023-01-20T08:20:19.524Z,13.83
2023-01-20T08:25:23.049Z,14.50
2023-01-20T08:30:25.620Z,13.53
2023-01-20T08:35:27.795Z,12.10
2023-01-20T08:40:33.290Z,12.43
2023-01-20T08:45:36.570Z,12.90
2023-01-20T08:50:38.416Z,10.87
2023-01-20T08:55:41.936Z,12.17
2023-01-20T09:00:44.136Z,11.13
2023-01-20T09:05:46.679Z,12.27
2023-01-20T09:10:50.144Z,11.43
2023-01-20T09:15:52.809Z,11.00
2023-01-20T09:20:54.869Z,10.70
2023-01-20T09:26:01.566Z,11.70
2023-01-20T09:31:06.795Z,10.77
2023-01-20T09:36:31.557Z,10.13
2023-01-20T09:41:37.572Z,9.47
2023-01-20T09:46:51.976Z,9.80
2023-01-20T09:52:02.570Z,9.47
2023-01-20T09:57:10.641Z,8.87
2023-01-20T10:02:19.746Z,8.73
2023-01-20T10:07:34.587Z,8.23
2023-01-20T10:12:44.204Z,8.60
2023-01-20T10:17:52.340Z,9.70
2023-01-20T10:23:01.586Z,9.00
2023-01-20T10:28:11.635Z,8.17
2023-01-20T10:33:15.283Z,7.87
2023-01-20T10:38:26.835Z,9.40
2023-01-20T10:43:31.183Z,9.07
2023-01-20T10:54:59.879Z,9.27
2023-01-20T11:00:06.423Z,8.27
2023-01-20T11:05:35.560Z,8.63
2023-01-20T11:10:37.700Z,8.70
2023-01-20T11:15:44.574Z,8.33
2023-01-20T11:20:48.333Z,7.20
2023-01-20T11:25:56.185Z,8.57
2023-01-20T11:30:59.667Z,8.10
2023-01-20T11:36:03.911Z,8.20
2023-01-20T11:41:06.427Z,8.63
2023-01-20T11:46:34.621Z,8.63
2023-01-20T11:51:45.599Z,9.60
2023-01-20T11:56:52.364Z,8.80
2023-01-20T12:01:58.960Z,8.07
2023-01-20T12:07:05.203Z,9.43
2023-01-20T12:12:15.045Z,8.33
2023-01-20T12:17:33.266Z,8.80
2023-01-20T12:22:44.989Z,8.97
2023-01-20T12:27:53.964Z,7.33
2023-01-20T12:32:58.187Z,8.33
2023-01-20T12:38:07.135Z,7.77
2023-01-20T12:43:50.503Z,7.83
2023-01-20T12:49:11.174Z,7.87
2023-01-20T12:54:54.384Z,7.47
2023-01-20T13:00:11.664Z,7.00
2023-01-20T13:06:07.551Z,7.20
2023-01-20T13:11:20.971Z,7.67
2023-01-20T13:16:32.660Z,7.63
2023-01-20T13:21:34.936Z,7.87
2023-01-20T13:26:38.275Z,8.73
2023-01-20T13:31:44.901Z,7.27
2023-01-20T13:37:21.962Z,7.60
2023-01-20T13:42:51.946Z,9.07
2023-01-20T13:48:10.364Z,7.87
2023-01-20T13:53:26.290Z,8.37
2023-01-20T13:58:31.525Z,8.30
2023-01-20T14:03:35.450Z,8.47
2023-01-20T14:08:39.440Z,8.87
2023-01-20T14:13:52.571Z,9.23
2023-01-20T14:18:57.808Z,8.67
2023-01-20T14:23:59.861Z,8.83
2023-01-20T14:34:45.249Z,10.10
2023-01-20T14:39:49.077Z,9.53
2023-01-20T14:44:55.980Z,9.93
2023-01-20T14:49:58.471Z,9.73
2023-01-20T14:55:00.584Z,10.50
2023-01-20T15:00:14.295Z,9.27
2023-01-20T15:05:25.517Z,10.93
2023-01-20T15:10:27.439Z,10.77
2023-01-20T15:15:32.292Z,10.27
2023-01-20T15:20:35.685Z,9.20
2023-01-20T15:25:37.866Z,9.67
2023-01-20T15:30:41.487Z,8.97
2023-01-20T15:35:43.747Z,9.40
2023-01-20T15:40:45.924Z,9.73
2023-01-20T15:45:49.175Z,9.77
2023-01-20T15:50:51.428Z,9.33
2023-01-20T15:55:53.687Z,9.07
2023-01-20T16:00:58.857Z,8.90
2023-01-20T16:06:00.799Z,9.07
2023-01-20T16:11:18.505Z,8.07
2023-01-20T16:16:25.454Z,8.37
2023-01-20T16:21:28.579Z,8.97
2023-01-20T16:26:34.110Z,8.90
2023-01-20T16:31:37.731Z,8.60
2023-01-20T16:36:39.913Z,8.93
2023-01-20T16:41:47.533Z,8.80
2023-01-20T16:46:51.084Z,8.00
2023-01-20T16:51:53.105Z,8.33
2023-01-20T16:56:55.189Z,8.67
2023-01-20T17:01:58.573Z,10.53
2023-01-20T17:07:00.330Z,8.30
2023-01-20T17:12:02.392Z,11.33
2023-01-20T17:17:05.534Z,10.67
2023-01-20T17:22:23.312Z,11.20
2023-01-20T17:27:25.326Z,10.87
2023-01-20T17:32:28.956Z,9.47
2023-01-20T17:37:31.206Z,11.30
2023-01-20T17:42:32.874Z,11.93
2023-01-20T17:47:36.424Z,12.27
2023-01-20T17:52:38.565Z,11.80
2023-01-20T17:57:40.736Z,11.70
2023-01-20T18:08:28.971Z,12.07
2023-01-20T18:13:30.861Z,11.37
2023-01-20T18:18:57.916Z,13.90
2023-01-20T18:24:00.846Z,14.13
2023-01-20T18:29:05.144Z,13.90
2023-01-20T18:34:11.293Z,14.13
2023-01-20T18:39:16.190Z,16.77
2023-01-20T18:44:18.952Z,14.07
2023-01-20T18:49:22.302Z,13.77
2023-01-20T18:54:24.051Z,12.83
2023-01-20T18:59:26.513Z,13.80
2023-01-20T19:04:29.950Z,17.63
2023-01-20T19:09:31.779Z,13.23
2023-01-20T19:14:34.355Z,13.53
2023-01-20T19:19:37.841Z,13.70
2023-01-20T19:24:39.631Z,14.37
2023-01-20T19:29:41.833Z,14.17
2023-01-20T19:34:45.182Z,15.43
2023-01-20T19:39:47.227Z,12.97
2023-01-20T19:44:49.085Z,12.70
2023-01-20T19:49:52.616Z,13.57
2023-01-20T19:54:54.812Z,13.20
2023-01-20T19:59:57.362Z,14.87
2023-01-20T20:05:28.938Z,14.40
2023-01-20T20:10:42.269Z,14.10
2023-01-20T20:15:47.037Z,12.63
2023-01-20T20:20:51.128Z,12.97
2023-01-20T20:25:55.450Z,14.13
2023-01-20T20:31:04.293Z,12.13
2023-01-20T20:36:09.537Z,12.70
2023-01-20T20:41:11.697Z,12.77
2023-01-20T20:46:15.820Z,11.83
2023-01-20T20:51:19.623Z,10.67
2023-01-20T20:56:23.014Z,11.83
2023-01-20T21:01:25.248Z,12.63
2023-01-20T21:06:29.635Z,12.93
2023-01-20T21:11:32.576Z,12.17
2023-01-20T21:16:35.231Z,13.03
2023-01-20T21:21:39.043Z,12.77
2023-01-20T21:26:41.399Z,13.33
2023-01-20T21:31:43.540Z,12.63
2023-01-20T21:36:46.756Z,12.43
2023-01-20T21:41:49.075Z,12.67
2023-01-20T21:46:51.313Z,12.00
2023-01-20T21:51:55.315Z,12.47
2023-01-20T21:56:57.861Z,12.20
2023-01-20T22:01:59.943Z,11.40
2023-01-20T22:07:03.151Z,10.90
2023-01-20T22:12:06.091Z,9.43
2023-01-20T22:17:09.158Z,9.87
2023-01-20T22:22:15.079Z,9.53
2023-01-20T22:27:17.444Z,8.83
2023-01-20T22:32:19.687Z,10.77
2023-01-20T22:37:22.906Z,10.60
2023-01-20T22:42:25.011Z,9.63
2023-01-20T22:47:27.157Z,10.40
2023-01-20T22:52:30.655Z,10.43
2023-01-20T22:57:33.067Z,10.43
2023-01-20T23:02:35.308Z,8.77
2023-01-20T23:07:38.790Z,9.50
2023-01-20T23:12:40.722Z,8.97
2023-01-20T23:17:42.837Z,8.37
2023-01-20T23:22:46.083Z,8.67
2023-01-20T23:27:47.784Z,8.13
2023-01-20T23:32:49.800Z,7.07
2023-01-20T23:37:53.460Z,7.10
2023-01-20T23:42:55.568Z,7.13
2023-01-20T23:47:57.319Z,7.20
2023-01-20T23:53:00.441Z,7.37
2023-01-20T23:58:03.586Z,6.70
